JST573 YBBN-YMML
Flight info
| Callsign | JST573 |
|---|---|
| Flight time | 2h 4m |
| Altitude | 32000 |
| Route | BN H91 SANEG Q35 DORSU H119 ML |
| Aircraft | A320/M-SDE3FGHIRWY/LB1 |
Departure
| Time | 2026-05-04 03:13 |
|---|---|
| Airport | Brisbane International Airport (YBBN) |
Arrival
| Time | 2026-05-04 05:17 |
|---|---|
| Airport | Melbourne Airport (YMML) |
| Time | Latitude | Longitude | Altitude | Speed | Heading |
|---|---|---|---|---|---|
| 2026-05-04 02:35 | -27.38576 | 153.12277 | 21 ft | 0 kts | 265° |
| 2026-05-04 02:58 | -27.38571 | 153.12299 | 23 ft | 4 kts | 248° |
| 2026-05-04 02:58 | -27.38566 | 153.12322 | 25 ft | 4 kts | 273° |
| 2026-05-04 02:58 | -27.38573 | 153.12342 | 23 ft | 4 kts | 352° |
| 2026-05-04 02:58 | -27.38595 | 153.12335 | 24 ft | 3 kts | 27° |
| 2026-05-04 02:59 | -27.38599 | 153.12332 | 21 ft | 0 kts | 27° |
| 2026-05-04 03:06 | -27.38598 | 153.12333 | 21 ft | 1 kts | 27° |
| 2026-05-04 03:06 | -27.38587 | 153.12339 | 23 ft | 3 kts | 27° |
| 2026-05-04 03:06 | -27.38564 | 153.12353 | 21 ft | 5 kts | 28° |
| 2026-05-04 03:06 | -27.38558 | 153.12387 | 21 ft | 5 kts | 110° |
| 2026-05-04 03:07 | -27.38603 | 153.12408 | 21 ft | 10 kts | 183° |
| 2026-05-04 03:07 | -27.38672 | 153.12378 | 21 ft | 12 kts | 207° |
| 2026-05-04 03:07 | -27.38749 | 153.12333 | 21 ft | 13 kts | 207° |
| 2026-05-04 03:07 | -27.38834 | 153.12284 | 23 ft | 15 kts | 207° |
| 2026-05-04 03:08 | -27.38928 | 153.12230 | 21 ft | 16 kts | 207° |
| 2026-05-04 03:08 | -27.38995 | 153.12191 | 22 ft | 17 kts | 207° |
| 2026-05-04 03:08 | -27.39144 | 153.12106 | 21 ft | 19 kts | 207° |
| 2026-05-04 03:08 | -27.39225 | 153.12060 | 22 ft | 20 kts | 207° |
| 2026-05-04 03:09 | -27.39387 | 153.11968 | 21 ft | 20 kts | 206° |
| 2026-05-04 03:09 | -27.39459 | 153.11932 | 22 ft | 14 kts | 192° |
| 2026-05-04 03:09 | -27.39541 | 153.12035 | 21 ft | 15 kts | 116° |
| 2026-05-04 03:09 | -27.39572 | 153.12102 | 22 ft | 1 kts | 117° |
| 2026-05-04 03:10 | -27.39572 | 153.12103 | 22 ft | 0 kts | 117° |
| 2026-05-04 03:11 | -27.39578 | 153.12115 | 50 ft | 3 kts | 117° |
| 2026-05-04 03:11 | -27.39592 | 153.12147 | 9 ft | 6 kts | 116° |
| 2026-05-04 03:11 | -27.39597 | 153.12201 | 20 ft | 8 kts | 75° |
| 2026-05-04 03:12 | -27.39497 | 153.12271 | 23 ft | 40 kts | 27° |
| 2026-05-04 03:12 | -27.39042 | 153.12531 | 19 ft | 105 kts | 27° |
| 2026-05-04 03:12 | -27.38231 | 153.12994 | 28 ft | 153 kts | 26° |
| 2026-05-04 03:12 | -27.37235 | 153.13544 | 462 ft | 159 kts | 26° |
| 2026-05-04 03:13 | -27.36281 | 153.14170 | 1081 ft | 157 kts | 45° |
| 2026-05-04 03:13 | -27.35537 | 153.15064 | 1683 ft | 158 kts | 52° |
| 2026-05-04 03:13 | -27.34807 | 153.16041 | 1969 ft | 175 kts | 52° |
| 2026-05-04 03:13 | -27.33965 | 153.17150 | 2164 ft | 196 kts | 50° |
| 2026-05-04 03:14 | -27.33015 | 153.18358 | 2431 ft | 215 kts | 50° |
| 2026-05-04 03:14 | -27.31955 | 153.19662 | 2724 ft | 237 kts | 48° |
| 2026-05-04 03:14 | -27.30803 | 153.21039 | 3286 ft | 248 kts | 47° |
| 2026-05-04 03:14 | -27.29600 | 153.22462 | 4075 ft | 252 kts | 50° |
| 2026-05-04 03:15 | -27.28755 | 153.24182 | 4861 ft | 254 kts | 76° |
| 2026-05-04 03:15 | -27.28560 | 153.26172 | 5622 ft | 258 kts | 87° |
| 2026-05-04 03:15 | -27.28478 | 153.28164 | 6374 ft | 259 kts | 88° |
| 2026-05-04 03:15 | -27.28397 | 153.30202 | 7142 ft | 262 kts | 87° |
| 2026-05-04 03:16 | -27.28309 | 153.32264 | 7879 ft | 266 kts | 87° |
| 2026-05-04 03:16 | -27.28217 | 153.34363 | 8589 ft | 270 kts | 87° |
| 2026-05-04 03:16 | -27.28170 | 153.36469 | 9269 ft | 276 kts | 96° |
| 2026-05-04 03:16 | -27.28794 | 153.38513 | 9922 ft | 281 kts | 125° |
| 2026-05-04 03:17 | -27.30234 | 153.39994 | 10472 ft | 285 kts | 154° |
| 2026-05-04 03:17 | -27.32160 | 153.40557 | 11027 ft | 289 kts | 176° |
| 2026-05-04 03:17 | -27.34156 | 153.40732 | 11618 ft | 294 kts | 177° |
| 2026-05-04 03:17 | -27.36214 | 153.40899 | 12219 ft | 298 kts | 178° |
| 2026-05-04 03:18 | -27.38294 | 153.40853 | 12780 ft | 300 kts | 191° |
| 2026-05-04 03:18 | -27.40388 | 153.40293 | 12983 ft | 319 kts | 198° |
| 2026-05-04 03:18 | -27.42588 | 153.39573 | 13111 ft | 338 kts | 199° |
| 2026-05-04 03:18 | -27.44879 | 153.38823 | 13331 ft | 353 kts | 199° |
| 2026-05-04 03:19 | -27.47201 | 153.37858 | 13808 ft | 356 kts | 209° |
| 2026-05-04 03:19 | -27.49337 | 153.36378 | 14110 ft | 363 kts | 221° |
| 2026-05-04 03:19 | -27.51263 | 153.34558 | 14503 ft | 368 kts | 223° |
| 2026-05-04 03:19 | -27.53235 | 153.32680 | 14994 ft | 371 kts | 223° |
| 2026-05-04 03:20 | -27.55177 | 153.30735 | 15495 ft | 371 kts | 230° |
| 2026-05-04 03:20 | -27.56759 | 153.28491 | 15993 ft | 369 kts | 241° |
| 2026-05-04 03:20 | -27.57978 | 153.25946 | 16513 ft | 369 kts | 246° |
| 2026-05-04 03:20 | -27.59131 | 153.23353 | 17046 ft | 371 kts | 246° |
| 2026-05-04 03:21 | -27.60316 | 153.20751 | 17582 ft | 374 kts | 243° |
| 2026-05-04 03:21 | -27.61866 | 153.18368 | 18114 ft | 382 kts | 231° |
| 2026-05-04 03:21 | -27.63874 | 153.16364 | 18616 ft | 390 kts | 219° |
| 2026-05-04 03:21 | -27.66188 | 153.14768 | 19083 ft | 396 kts | 214° |
| 2026-05-04 03:22 | -27.68580 | 153.13186 | 19567 ft | 398 kts | 215° |
| 2026-05-04 03:22 | -27.70950 | 153.11617 | 20056 ft | 400 kts | 215° |
| 2026-05-04 03:22 | -27.73366 | 153.10014 | 20542 ft | 403 kts | 215° |
| 2026-05-04 03:22 | -27.75796 | 153.08396 | 21020 ft | 405 kts | 216° |
| 2026-05-04 03:23 | -27.78238 | 153.06767 | 21493 ft | 407 kts | 216° |
| 2026-05-04 03:23 | -27.80660 | 153.05151 | 21935 ft | 410 kts | 216° |
| 2026-05-04 03:23 | -27.83095 | 153.03465 | 22380 ft | 411 kts | 218° |
| 2026-05-04 03:23 | -27.85479 | 153.01658 | 22816 ft | 412 kts | 220° |
| 2026-05-04 03:24 | -27.87796 | 152.99791 | 23226 ft | 413 kts | 221° |
| 2026-05-04 03:24 | -27.90127 | 152.97863 | 23653 ft | 415 kts | 221° |
| 2026-05-04 03:24 | -27.92465 | 152.95926 | 24002 ft | 417 kts | 221° |
| 2026-05-04 03:24 | -27.94826 | 152.93989 | 24349 ft | 419 kts | 221° |
| 2026-05-04 03:25 | -27.97174 | 152.92085 | 24704 ft | 421 kts | 221° |
| 2026-05-04 03:25 | -27.99570 | 152.90159 | 25052 ft | 422 kts | 221° |
| 2026-05-04 03:25 | -28.01979 | 152.88238 | 25382 ft | 423 kts | 221° |
| 2026-05-04 03:25 | -28.04402 | 152.86313 | 25703 ft | 425 kts | 221° |
| 2026-05-04 03:26 | -28.06802 | 152.84402 | 26022 ft | 426 kts | 221° |
| 2026-05-04 03:26 | -28.09239 | 152.82454 | 26383 ft | 428 kts | 222° |
| 2026-05-04 03:26 | -28.11679 | 152.80496 | 26728 ft | 428 kts | 222° |
| 2026-05-04 03:26 | -28.14090 | 152.78559 | 27055 ft | 430 kts | 222° |
| 2026-05-04 03:27 | -28.16546 | 152.76584 | 27369 ft | 431 kts | 222° |
| 2026-05-04 03:27 | -28.19004 | 152.74606 | 27705 ft | 433 kts | 222° |
| 2026-05-04 03:27 | -28.21433 | 152.72651 | 28002 ft | 435 kts | 222° |
| 2026-05-04 03:27 | -28.23910 | 152.70654 | 28312 ft | 436 kts | 222° |
| 2026-05-04 03:28 | -28.26384 | 152.68665 | 28760 ft | 434 kts | 223° |
| 2026-05-04 03:28 | -28.28849 | 152.66686 | 29285 ft | 432 kts | 223° |
| 2026-05-04 03:28 | -28.31307 | 152.64711 | 29792 ft | 429 kts | 223° |
| 2026-05-04 03:28 | -28.33711 | 152.62777 | 30288 ft | 427 kts | 224° |
| 2026-05-04 03:29 | -28.36135 | 152.60820 | 30707 ft | 425 kts | 224° |
| 2026-05-04 03:29 | -28.38547 | 152.58870 | 31138 ft | 422 kts | 224° |
| 2026-05-04 03:29 | -28.40907 | 152.56964 | 31573 ft | 419 kts | 224° |
| 2026-05-04 03:29 | -28.43279 | 152.55044 | 31968 ft | 417 kts | 225° |
| 2026-05-04 03:30 | -28.45644 | 152.53124 | 32079 ft | 417 kts | 225° |
| 2026-05-04 03:30 | -28.50390 | 152.49257 | 32104 ft | 423 kts | 225° |
| 2026-05-04 03:31 | -28.55200 | 152.45360 | 32109 ft | 424 kts | 225° |
| 2026-05-04 03:31 | -28.59987 | 152.41495 | 32104 ft | 423 kts | 225° |
| 2026-05-04 03:32 | -28.64794 | 152.37600 | 32108 ft | 423 kts | 225° |
| 2026-05-04 03:32 | -28.69602 | 152.33687 | 32110 ft | 424 kts | 225° |
| 2026-05-04 03:33 | -28.74378 | 152.29801 | 32106 ft | 424 kts | 225° |
| 2026-05-04 03:33 | -28.79181 | 152.25876 | 32137 ft | 424 kts | 225° |
| 2026-05-04 03:34 | -28.83960 | 152.21963 | 32129 ft | 424 kts | 225° |
| 2026-05-04 03:34 | -28.88778 | 152.18030 | 32123 ft | 424 kts | 225° |
| 2026-05-04 03:35 | -28.93556 | 152.14131 | 32117 ft | 424 kts | 225° |
| 2026-05-04 03:35 | -28.98371 | 152.10195 | 32142 ft | 424 kts | 225° |
| 2026-05-04 03:36 | -29.03146 | 152.06271 | 32133 ft | 424 kts | 225° |
| 2026-05-04 03:36 | -29.07944 | 152.02325 | 32126 ft | 424 kts | 225° |
| 2026-05-04 03:37 | -29.12714 | 151.98408 | 32120 ft | 424 kts | 225° |
| 2026-05-04 03:37 | -29.17517 | 151.94453 | 32116 ft | 424 kts | 225° |
| 2026-05-04 03:38 | -29.22283 | 151.90534 | 32136 ft | 424 kts | 225° |
| 2026-05-04 03:38 | -29.27087 | 151.86576 | 32121 ft | 424 kts | 225° |
| 2026-05-04 03:39 | -29.31849 | 151.82649 | 32113 ft | 424 kts | 225° |
| 2026-05-04 03:39 | -29.36649 | 151.78682 | 32107 ft | 424 kts | 225° |
| 2026-05-04 03:40 | -29.41411 | 151.74728 | 32139 ft | 424 kts | 225° |
| 2026-05-04 03:40 | -29.46211 | 151.70749 | 32128 ft | 424 kts | 225° |
| 2026-05-04 03:41 | -29.50989 | 151.66798 | 32120 ft | 425 kts | 224° |
| 2026-05-04 03:41 | -29.56177 | 151.63323 | 32116 ft | 433 kts | 219° |
| 2026-05-04 03:42 | -29.61402 | 151.59944 | 32111 ft | 433 kts | 219° |
| 2026-05-04 03:42 | -29.66655 | 151.56526 | 32124 ft | 433 kts | 220° |
| 2026-05-04 03:43 | -29.71889 | 151.53116 | 32120 ft | 433 kts | 220° |
| 2026-05-04 03:43 | -29.77145 | 151.49696 | 32110 ft | 433 kts | 220° |
| 2026-05-04 03:44 | -29.82372 | 151.46294 | 32116 ft | 433 kts | 220° |
| 2026-05-04 03:44 | -29.87603 | 151.42882 | 32118 ft | 433 kts | 220° |
| 2026-05-04 03:45 | -29.92867 | 151.39448 | 32119 ft | 432 kts | 220° |
| 2026-05-04 03:45 | -29.98082 | 151.36033 | 32112 ft | 432 kts | 220° |
| 2026-05-04 03:46 | -30.03302 | 151.32614 | 32109 ft | 432 kts | 220° |
| 2026-05-04 03:46 | -30.08547 | 151.29175 | 32110 ft | 432 kts | 220° |
| 2026-05-04 03:47 | -30.13748 | 151.25758 | 32096 ft | 432 kts | 220° |
| 2026-05-04 03:47 | -30.18986 | 151.22311 | 32092 ft | 432 kts | 220° |
| 2026-05-04 03:48 | -30.24189 | 151.18885 | 32090 ft | 432 kts | 220° |
| 2026-05-04 03:48 | -30.29391 | 151.15459 | 32099 ft | 432 kts | 220° |
| 2026-05-04 03:49 | -30.34616 | 151.12016 | 32093 ft | 431 kts | 220° |
| 2026-05-04 03:49 | -30.39815 | 151.08584 | 32077 ft | 431 kts | 220° |
| 2026-05-04 03:50 | -30.45038 | 151.05130 | 32078 ft | 431 kts | 220° |
| 2026-05-04 03:50 | -30.50219 | 151.01698 | 32114 ft | 431 kts | 221° |
| 2026-05-04 03:51 | -30.55438 | 150.98240 | 32088 ft | 431 kts | 220° |
| 2026-05-04 03:51 | -30.60618 | 150.94809 | 32076 ft | 430 kts | 220° |
| 2026-05-04 03:52 | -30.65797 | 150.91368 | 32069 ft | 430 kts | 221° |
| 2026-05-04 03:52 | -30.71005 | 150.87896 | 32053 ft | 430 kts | 221° |
| 2026-05-04 03:53 | -30.76187 | 150.84444 | 32055 ft | 430 kts | 221° |
| 2026-05-04 03:53 | -30.81371 | 150.80982 | 32040 ft | 431 kts | 221° |
| 2026-05-04 03:54 | -30.86594 | 150.77489 | 32038 ft | 432 kts | 221° |
| 2026-05-04 03:54 | -30.91790 | 150.74010 | 32043 ft | 432 kts | 221° |
| 2026-05-04 03:55 | -30.97026 | 150.70507 | 32082 ft | 433 kts | 221° |
| 2026-05-04 03:55 | -31.02241 | 150.67007 | 32075 ft | 434 kts | 221° |
| 2026-05-04 03:56 | -31.07302 | 150.63318 | 32065 ft | 420 kts | 230° |
| 2026-05-04 03:56 | -31.11656 | 150.58811 | 32062 ft | 417 kts | 232° |
| 2026-05-04 03:57 | -31.15967 | 150.54316 | 32083 ft | 418 kts | 233° |
| 2026-05-04 03:57 | -31.20318 | 150.49788 | 32068 ft | 418 kts | 233° |
| 2026-05-04 03:58 | -31.26807 | 150.43019 | 32059 ft | 418 kts | 233° |
| 2026-05-04 03:58 | -31.31126 | 150.38507 | 32054 ft | 418 kts | 233° |
| 2026-05-04 03:59 | -31.35478 | 150.33961 | 32079 ft | 418 kts | 233° |
| 2026-05-04 03:59 | -31.39812 | 150.29423 | 32068 ft | 418 kts | 233° |
| 2026-05-04 04:00 | -31.44125 | 150.24906 | 32060 ft | 417 kts | 233° |
| 2026-05-04 04:00 | -31.48452 | 150.20364 | 32058 ft | 417 kts | 233° |
| 2026-05-04 04:01 | -31.52776 | 150.15808 | 32086 ft | 417 kts | 234° |
| 2026-05-04 04:01 | -31.57069 | 150.11280 | 32065 ft | 417 kts | 233° |
| 2026-05-04 04:02 | -31.61407 | 150.06718 | 32054 ft | 418 kts | 233° |
| 2026-05-04 04:02 | -31.65710 | 150.02179 | 32053 ft | 418 kts | 234° |
| 2026-05-04 04:03 | -31.69303 | 149.98374 | 32045 ft | 418 kts | 234° |
| 2026-05-04 04:03 | -31.74338 | 149.93042 | 32057 ft | 418 kts | 234° |
| 2026-05-04 04:04 | -31.77939 | 149.89218 | 32047 ft | 418 kts | 234° |
| 2026-05-04 04:04 | -31.82253 | 149.84640 | 32039 ft | 419 kts | 234° |
| 2026-05-04 04:05 | -31.86528 | 149.79970 | 32033 ft | 416 kts | 237° |
| 2026-05-04 04:05 | -31.90524 | 149.75127 | 32046 ft | 413 kts | 238° |
| 2026-05-04 04:06 | -31.94489 | 149.70195 | 32034 ft | 414 kts | 238° |
| 2026-05-04 04:06 | -31.98471 | 149.65311 | 32025 ft | 415 kts | 238° |
| 2026-05-04 04:07 | -32.02516 | 149.60418 | 32022 ft | 416 kts | 237° |
| 2026-05-04 04:07 | -32.06549 | 149.55551 | 32030 ft | 416 kts | 237° |
| 2026-05-04 04:08 | -32.10578 | 149.50655 | 32027 ft | 416 kts | 238° |
| 2026-05-04 04:08 | -32.14588 | 149.45771 | 32032 ft | 416 kts | 238° |
| 2026-05-04 04:09 | -32.18622 | 149.40855 | 32034 ft | 416 kts | 238° |
| 2026-05-04 04:09 | -32.22637 | 149.35962 | 32034 ft | 415 kts | 238° |
| 2026-05-04 04:10 | -32.26640 | 149.31065 | 32064 ft | 416 kts | 238° |
| 2026-05-04 04:10 | -32.30678 | 149.26119 | 32053 ft | 416 kts | 238° |
| 2026-05-04 04:11 | -32.34676 | 149.21222 | 32047 ft | 416 kts | 238° |
| 2026-05-04 04:11 | -32.38701 | 149.16286 | 32040 ft | 417 kts | 238° |
| 2026-05-04 04:12 | -32.42713 | 149.11364 | 32058 ft | 417 kts | 238° |
| 2026-05-04 04:12 | -32.46747 | 149.06409 | 32053 ft | 417 kts | 238° |
| 2026-05-04 04:13 | -32.50756 | 149.01464 | 32058 ft | 417 kts | 238° |
| 2026-05-04 04:13 | -32.54794 | 148.96473 | 32047 ft | 418 kts | 238° |
| 2026-05-04 04:14 | -32.58816 | 148.91513 | 32041 ft | 419 kts | 237° |
| 2026-05-04 04:14 | -32.62859 | 148.86519 | 32050 ft | 419 kts | 237° |
| 2026-05-04 04:15 | -32.66875 | 148.81543 | 32041 ft | 419 kts | 237° |
| 2026-05-04 04:15 | -32.70903 | 148.76544 | 32037 ft | 420 kts | 237° |
| 2026-05-04 04:16 | -32.74955 | 148.71511 | 32042 ft | 421 kts | 237° |
| 2026-05-04 04:16 | -32.78978 | 148.66501 | 32048 ft | 422 kts | 236° |
| 2026-05-04 04:17 | -32.83048 | 148.61429 | 32030 ft | 424 kts | 236° |
| 2026-05-04 04:17 | -32.87108 | 148.56367 | 32036 ft | 425 kts | 236° |
| 2026-05-04 04:18 | -32.91198 | 148.51262 | 32033 ft | 426 kts | 236° |
| 2026-05-04 04:18 | -32.95269 | 148.46171 | 32060 ft | 426 kts | 236° |
| 2026-05-04 04:19 | -32.99373 | 148.41025 | 32041 ft | 427 kts | 236° |
| 2026-05-04 04:19 | -33.03447 | 148.35913 | 32038 ft | 428 kts | 235° |
| 2026-05-04 04:20 | -33.07567 | 148.30739 | 32046 ft | 429 kts | 236° |
| 2026-05-04 04:20 | -33.11652 | 148.25591 | 32069 ft | 429 kts | 235° |
| 2026-05-04 04:21 | -33.16233 | 148.20850 | 32065 ft | 440 kts | 226° |
| 2026-05-04 04:21 | -33.21071 | 148.16408 | 32077 ft | 440 kts | 227° |
| 2026-05-04 04:22 | -33.25895 | 148.11966 | 32073 ft | 439 kts | 227° |
| 2026-05-04 04:22 | -33.30746 | 148.07478 | 32087 ft | 439 kts | 227° |
| 2026-05-04 04:23 | -33.35554 | 148.03014 | 32080 ft | 440 kts | 227° |
| 2026-05-04 04:23 | -33.40409 | 147.98508 | 32070 ft | 440 kts | 227° |
| 2026-05-04 04:24 | -33.45222 | 147.94040 | 32065 ft | 440 kts | 227° |
| 2026-05-04 04:24 | -33.50046 | 147.89562 | 32094 ft | 440 kts | 227° |
| 2026-05-04 04:25 | -33.54891 | 147.85051 | 32089 ft | 440 kts | 227° |
| 2026-05-04 04:25 | -33.59731 | 147.80539 | 32077 ft | 440 kts | 227° |
| 2026-05-04 04:26 | -33.64529 | 147.76054 | 32093 ft | 440 kts | 227° |
| 2026-05-04 04:26 | -33.69370 | 147.71535 | 32073 ft | 440 kts | 227° |
| 2026-05-04 04:27 | -33.74186 | 147.67022 | 32061 ft | 440 kts | 227° |
| 2026-05-04 04:27 | -33.79005 | 147.62497 | 32065 ft | 440 kts | 227° |
| 2026-05-04 04:28 | -33.83843 | 147.57950 | 32062 ft | 440 kts | 227° |
| 2026-05-04 04:28 | -33.88637 | 147.53434 | 32056 ft | 440 kts | 227° |
| 2026-05-04 04:29 | -33.93464 | 147.48883 | 32053 ft | 439 kts | 227° |
| 2026-05-04 04:29 | -33.98287 | 147.44341 | 32050 ft | 439 kts | 227° |
| 2026-05-04 04:30 | -34.03078 | 147.39817 | 32056 ft | 439 kts | 228° |
| 2026-05-04 04:30 | -34.07903 | 147.35251 | 32046 ft | 440 kts | 228° |
| 2026-05-04 04:31 | -34.12704 | 147.30698 | 32036 ft | 440 kts | 228° |
| 2026-05-04 04:31 | -34.17492 | 147.26148 | 32062 ft | 440 kts | 228° |
| 2026-05-04 04:32 | -34.22318 | 147.21561 | 32037 ft | 441 kts | 228° |
| 2026-05-04 04:32 | -34.27165 | 147.16950 | 32031 ft | 442 kts | 228° |
| 2026-05-04 04:33 | -34.31972 | 147.12365 | 32027 ft | 442 kts | 228° |
| 2026-05-04 04:33 | -34.36776 | 147.07774 | 32040 ft | 442 kts | 229° |
| 2026-05-04 04:34 | -34.41618 | 147.03138 | 32037 ft | 443 kts | 229° |
| 2026-05-04 04:34 | -34.46471 | 146.98491 | 32033 ft | 443 kts | 229° |
| 2026-05-04 04:35 | -34.51297 | 146.93868 | 32064 ft | 444 kts | 229° |
| 2026-05-04 04:35 | -34.56123 | 146.89233 | 32045 ft | 444 kts | 229° |
| 2026-05-04 04:36 | -34.60987 | 146.84550 | 32035 ft | 445 kts | 229° |
| 2026-05-04 04:36 | -34.65810 | 146.79903 | 32050 ft | 445 kts | 229° |
| 2026-05-04 04:37 | -34.75504 | 146.70539 | 32047 ft | 445 kts | 229° |
| 2026-05-04 04:38 | -34.80363 | 146.65830 | 32039 ft | 445 kts | 229° |
| 2026-05-04 04:38 | -34.85190 | 146.61149 | 32070 ft | 445 kts | 229° |
| 2026-05-04 04:39 | -34.90053 | 146.56425 | 32056 ft | 446 kts | 229° |
| 2026-05-04 04:39 | -34.94917 | 146.51694 | 32039 ft | 446 kts | 229° |
| 2026-05-04 04:40 | -34.99757 | 146.46974 | 32036 ft | 447 kts | 229° |
| 2026-05-04 04:40 | -35.04603 | 146.42249 | 32052 ft | 447 kts | 229° |
| 2026-05-04 04:41 | -35.09473 | 146.37489 | 32039 ft | 447 kts | 229° |
| 2026-05-04 04:41 | -35.14320 | 146.32746 | 32032 ft | 448 kts | 229° |
| 2026-05-04 04:42 | -35.19164 | 146.28005 | 32019 ft | 446 kts | 229° |
| 2026-05-04 04:42 | -35.24016 | 146.23248 | 32012 ft | 446 kts | 229° |
| 2026-05-04 04:43 | -35.28823 | 146.18505 | 32001 ft | 446 kts | 229° |
| 2026-05-04 04:43 | -35.33671 | 146.13715 | 32035 ft | 446 kts | 229° |
| 2026-05-04 04:44 | -35.38495 | 146.08964 | 32012 ft | 447 kts | 229° |
| 2026-05-04 04:44 | -35.43351 | 146.04181 | 32013 ft | 447 kts | 229° |
| 2026-05-04 04:45 | -35.48171 | 145.99408 | 32015 ft | 447 kts | 229° |
| 2026-05-04 04:47 | -35.65061 | 145.82624 | 32034 ft | 446 kts | 229° |
| 2026-05-04 04:47 | -35.69860 | 145.77840 | 32027 ft | 446 kts | 229° |
| 2026-05-04 04:48 | -35.74672 | 145.73031 | 32014 ft | 446 kts | 229° |
| 2026-05-04 04:49 | -35.86707 | 145.60973 | 32001 ft | 446 kts | 229° |
| 2026-05-04 04:49 | -35.91545 | 145.56125 | 31992 ft | 447 kts | 229° |
| 2026-05-04 04:50 | -35.96355 | 145.51290 | 32034 ft | 447 kts | 228° |
| 2026-05-04 04:50 | -36.01151 | 145.46454 | 32015 ft | 447 kts | 228° |
| 2026-05-04 04:51 | -36.05973 | 145.41590 | 32009 ft | 446 kts | 229° |
| 2026-05-04 04:51 | -36.10792 | 145.36714 | 31992 ft | 446 kts | 229° |
| 2026-05-04 04:52 | -36.15583 | 145.31865 | 31998 ft | 447 kts | 228° |
| 2026-05-04 04:52 | -36.20396 | 145.26989 | 31980 ft | 447 kts | 229° |
| 2026-05-04 04:53 | -36.22779 | 145.24570 | 31738 ft | 446 kts | 228° |
| 2026-05-04 04:53 | -36.25186 | 145.22127 | 31156 ft | 444 kts | 228° |
| 2026-05-04 04:53 | -36.27574 | 145.19703 | 30641 ft | 441 kts | 229° |
| 2026-05-04 04:53 | -36.29917 | 145.17322 | 30073 ft | 439 kts | 229° |
| 2026-05-04 04:54 | -36.32276 | 145.14920 | 29468 ft | 436 kts | 229° |
| 2026-05-04 04:54 | -36.34615 | 145.12538 | 28931 ft | 431 kts | 229° |
| 2026-05-04 04:54 | -36.36888 | 145.10222 | 28405 ft | 427 kts | 229° |
| 2026-05-04 04:54 | -36.39175 | 145.07885 | 27870 ft | 423 kts | 229° |
| 2026-05-04 04:55 | -36.41441 | 145.05566 | 27340 ft | 420 kts | 229° |
| 2026-05-04 04:55 | -36.43693 | 145.03257 | 26822 ft | 417 kts | 229° |
| 2026-05-04 04:55 | -36.45902 | 145.00989 | 26315 ft | 415 kts | 229° |
| 2026-05-04 04:55 | -36.48130 | 144.98700 | 25820 ft | 413 kts | 229° |
| 2026-05-04 04:56 | -36.50342 | 144.96428 | 25319 ft | 410 kts | 229° |
| 2026-05-04 04:56 | -36.52544 | 144.94169 | 24836 ft | 408 kts | 228° |
| 2026-05-04 04:56 | -36.54738 | 144.91920 | 24362 ft | 407 kts | 228° |
| 2026-05-04 04:56 | -36.56900 | 144.89706 | 23927 ft | 405 kts | 228° |
| 2026-05-04 04:57 | -36.59074 | 144.87474 | 23443 ft | 404 kts | 228° |
| 2026-05-04 04:57 | -36.60515 | 144.85991 | 23095 ft | 403 kts | 228° |
| 2026-05-04 04:57 | -36.63369 | 144.83052 | 22501 ft | 399 kts | 227° |
| 2026-05-04 04:57 | -36.65504 | 144.80853 | 22033 ft | 397 kts | 227° |
| 2026-05-04 04:58 | -36.67630 | 144.78663 | 21554 ft | 395 kts | 227° |
| 2026-05-04 04:58 | -36.69720 | 144.76507 | 21064 ft | 393 kts | 227° |
| 2026-05-04 04:58 | -36.71822 | 144.74335 | 20590 ft | 391 kts | 226° |
| 2026-05-04 04:58 | -36.73213 | 144.72894 | 20240 ft | 390 kts | 226° |
| 2026-05-04 04:59 | -36.75309 | 144.70722 | 19712 ft | 390 kts | 226° |
| 2026-05-04 04:59 | -36.77431 | 144.68609 | 19194 ft | 392 kts | 220° |
| 2026-05-04 04:59 | -36.80731 | 144.66655 | 18553 ft | 401 kts | 202° |
| 2026-05-04 04:59 | -36.82562 | 144.66189 | 18265 ft | 406 kts | 191° |
| 2026-05-04 05:00 | -36.85393 | 144.66200 | 17837 ft | 408 kts | 177° |
| 2026-05-04 05:00 | -36.88186 | 144.66789 | 17179 ft | 403 kts | 174° |
| 2026-05-04 05:00 | -36.93540 | 144.67998 | 15887 ft | 377 kts | 174° |
| 2026-05-04 05:01 | -36.96098 | 144.68574 | 15377 ft | 369 kts | 174° |
| 2026-05-04 05:01 | -36.98635 | 144.69135 | 14859 ft | 369 kts | 174° |
| 2026-05-04 05:01 | -37.01137 | 144.69684 | 14353 ft | 369 kts | 174° |
| 2026-05-04 05:01 | -37.03669 | 144.70242 | 13844 ft | 369 kts | 174° |
| 2026-05-04 05:02 | -37.06201 | 144.70804 | 13287 ft | 368 kts | 174° |
| 2026-05-04 05:02 | -37.08726 | 144.71365 | 12772 ft | 366 kts | 174° |
| 2026-05-04 05:02 | -37.11231 | 144.71921 | 12259 ft | 364 kts | 174° |
| 2026-05-04 05:02 | -37.13690 | 144.72466 | 11756 ft | 363 kts | 174° |
| 2026-05-04 05:03 | -37.16182 | 144.73020 | 11255 ft | 360 kts | 174° |
| 2026-05-04 05:03 | -37.18647 | 144.73591 | 10796 ft | 358 kts | 173° |
| 2026-05-04 05:04 | -37.25766 | 144.75498 | 9981 ft | 329 kts | 172° |
| 2026-05-04 05:04 | -37.27964 | 144.76109 | 9752 ft | 318 kts | 172° |
| 2026-05-04 05:04 | -37.30121 | 144.76699 | 9593 ft | 316 kts | 172° |
| 2026-05-04 05:06 | -37.45139 | 144.79533 | 7662 ft | 305 kts | 186° |
| 2026-05-04 05:06 | -37.47195 | 144.79249 | 7435 ft | 297 kts | 200° |
| 2026-05-04 05:06 | -37.49135 | 144.78441 | 7204 ft | 291 kts | 208° |
| 2026-05-04 05:07 | -37.51015 | 144.77542 | 6993 ft | 291 kts | 208° |
| 2026-05-04 05:07 | -37.52912 | 144.76645 | 6755 ft | 290 kts | 207° |
| 2026-05-04 05:07 | -37.54800 | 144.75755 | 6530 ft | 288 kts | 207° |
| 2026-05-04 05:09 | -37.70966 | 144.72969 | 4699 ft | 295 kts | 187° |
| 2026-05-04 05:09 | -37.72949 | 144.72899 | 4528 ft | 281 kts | 186° |
| 2026-05-04 05:10 | -37.74892 | 144.72877 | 4320 ft | 274 kts | 185° |
| 2026-05-04 05:10 | -37.76782 | 144.72867 | 4180 ft | 271 kts | 185° |
| 2026-05-04 05:10 | -37.78670 | 144.72859 | 3954 ft | 269 kts | 183° |
| 2026-05-04 05:10 | -37.80512 | 144.73277 | 3725 ft | 270 kts | 160° |
| 2026-05-04 05:11 | -37.82102 | 144.74442 | 3532 ft | 265 kts | 137° |
| 2026-05-04 05:11 | -37.83273 | 144.76172 | 3349 ft | 255 kts | 116° |
| 2026-05-04 05:11 | -37.83959 | 144.78178 | 3155 ft | 243 kts | 98° |
| 2026-05-04 05:11 | -37.84167 | 144.80233 | 2974 ft | 227 kts | 80° |
| 2026-05-04 05:12 | -37.83990 | 144.82163 | 2813 ft | 221 kts | 72° |
| 2026-05-04 05:12 | -37.83769 | 144.84034 | 2658 ft | 208 kts | 71° |
| 2026-05-04 05:12 | -37.83268 | 144.85581 | 2583 ft | 173 kts | 39° |
| 2026-05-04 05:12 | -37.82402 | 144.86368 | 2491 ft | 143 kts | 11° |
| 2026-05-04 05:13 | -37.81489 | 144.86520 | 2384 ft | 127 kts | 351° |
| 2026-05-04 05:13 | -37.80608 | 144.86357 | 2271 ft | 127 kts | 349° |
| 2026-05-04 05:13 | -37.79721 | 144.86190 | 2171 ft | 130 kts | 349° |
| 2026-05-04 05:13 | -37.78844 | 144.86025 | 2067 ft | 128 kts | 349° |
| 2026-05-04 05:14 | -37.77958 | 144.85858 | 1966 ft | 128 kts | 349° |
| 2026-05-04 05:14 | -37.77076 | 144.85694 | 1870 ft | 127 kts | 349° |
| 2026-05-04 05:14 | -37.76205 | 144.85531 | 1771 ft | 128 kts | 349° |
| 2026-05-04 05:14 | -37.75327 | 144.85365 | 1670 ft | 127 kts | 349° |
| 2026-05-04 05:15 | -37.74445 | 144.85199 | 1511 ft | 127 kts | 349° |
| 2026-05-04 05:15 | -37.73569 | 144.85035 | 1328 ft | 130 kts | 350° |
| 2026-05-04 05:15 | -37.72690 | 144.84873 | 1161 ft | 128 kts | 352° |
| 2026-05-04 05:15 | -37.71781 | 144.84704 | 991 ft | 132 kts | 353° |
| 2026-05-04 05:16 | -37.70864 | 144.84531 | 802 ft | 130 kts | 352° |
| 2026-05-04 05:16 | -37.69977 | 144.84361 | 650 ft | 128 kts | 354° |
| 2026-05-04 05:16 | -37.69077 | 144.84191 | 483 ft | 129 kts | 352° |
| 2026-05-04 05:16 | -37.68172 | 144.84022 | 369 ft | 124 kts | 353° |
| 2026-05-04 05:17 | -37.67472 | 144.83894 | 369 ft | 70 kts | 351° |
| 2026-05-04 05:17 | -37.67252 | 144.83852 | 377 ft | 13 kts | 351° |
| 2026-05-04 05:17 | -37.67158 | 144.83835 | 381 ft | 14 kts | 353° |
| 2026-05-04 05:17 | -37.67051 | 144.83830 | 384 ft | 17 kts | 4° |
| 2026-05-04 05:18 | -37.66932 | 144.83866 | 388 ft | 16 kts | 18° |
| 2026-05-04 05:18 | -37.66831 | 144.83917 | 392 ft | 15 kts | 22° |
| 2026-05-04 05:18 | -37.66746 | 144.83973 | 389 ft | 13 kts | 46° |
| 2026-05-04 05:18 | -37.66719 | 144.84083 | 392 ft | 14 kts | 95° |
| 2026-05-04 05:19 | -37.66782 | 144.84185 | 392 ft | 15 kts | 154° |
| 2026-05-04 05:19 | -37.66900 | 144.84212 | 388 ft | 19 kts | 172° |
| 2026-05-04 05:19 | -37.67028 | 144.84238 | 385 ft | 18 kts | 171° |
| 2026-05-04 05:19 | -37.67162 | 144.84261 | 382 ft | 20 kts | 171° |
| 2026-05-04 05:20 | -37.67298 | 144.84287 | 380 ft | 18 kts | 171° |
| 2026-05-04 05:20 | -37.67411 | 144.84308 | 377 ft | 13 kts | 171° |
| 2026-05-04 05:20 | -37.67477 | 144.84372 | 377 ft | 14 kts | 92° |
| 2026-05-04 05:20 | -37.67463 | 144.84495 | 379 ft | 15 kts | 82° |
| 2026-05-04 05:21 | -37.67449 | 144.84621 | 381 ft | 14 kts | 81° |
| 2026-05-04 05:21 | -37.67427 | 144.84688 | 382 ft | 6 kts | 25° |
| 2026-05-04 05:21 | -37.67387 | 144.84685 | 383 ft | 6 kts | 351° |
| 2026-05-04 05:21 | -37.67362 | 144.84680 | 384 ft | 1 kts | 351° |
| 2026-05-04 05:22 | -37.67359 | 144.84679 | 384 ft | 0 kts | 352° |
| 2026-05-04 05:22 | -37.67354 | 144.84679 | 384 ft | 1 kts | 352° |
| 2026-05-04 05:22 | -37.67344 | 144.84677 | 384 ft | 1 kts | 351° |